Time;durP1;ratioP1;P1;durP2;ratioP2;P2;SDS_P1;SDS_P2;PMS_P1;PMS_P2;Temp;Humidity;BMP_temperature;BMP_pressure;BME280_temperature;BME280_humidity;BME280_pressure;Samples;Min_cycle;Max_cycle;Signal;HPM_P1;HPM_P2
2021/04/04 00:00:41;;;;;;;24.73;6.82;;;;;;;4.95;100.00;102825.06;5215969;28;20021;-68
2021/04/04 00:03:12;;;;;;;22.75;7.30;;;;;;;4.97;100.00;102817.00;5231662;28;20027;-69
2021/04/04 00:05:42;;;;;;;26.70;7.10;;;;;;;4.94;100.00;102818.03;5234088;28;20543;-68
2021/04/04 00:08:13;;;;;;;25.92;6.45;;;;;;;5.05;100.00;102817.44;5230872;28;20470;-68
2021/04/04 00:10:43;;;;;;;32.47;8.25;;;;;;;5.06;100.00;102808.53;5239297;28;20075;-70
2021/04/04 00:13:14;;;;;;;45.00;6.95;;;;;;;5.07;100.00;102818.22;5229523;28;20374;-71
2021/04/04 00:15:44;;;;;;;30.65;6.85;;;;;;;5.09;100.00;102811.88;5236920;28;20024;-68
2021/04/04 00:18:15;;;;;;;37.72;7.55;;;;;;;5.05;100.00;102820.09;5229476;28;20028;-70
2021/04/04 00:20:45;;;;;;;26.65;6.70;;;;;;;5.02;100.00;102815.84;5225679;28;20252;-70
2021/04/04 00:23:16;;;;;;;24.85;6.78;;;;;;;5.06;100.00;102819.16;5227065;28;20017;-69
2021/04/04 00:25:46;;;;;;;25.27;6.53;;;;;;;5.07;100.00;102810.22;5231257;28;20535;-70
2021/04/04 00:28:17;;;;;;;33.05;7.10;;;;;;;5.16;100.00;102809.75;5230983;28;20052;-71
2021/04/04 00:30:47;;;;;;;19.02;6.88;;;;;;;5.08;100.00;102804.84;5230300;28;20028;-66
2021/04/04 00:33:18;;;;;;;32.53;7.97;;;;;;;5.14;100.00;102807.16;5223248;28;20025;-67
2021/04/04 00:35:48;;;;;;;32.70;7.28;;;;;;;5.09;100.00;102805.72;5223457;28;20463;-71
2021/04/04 00:38:19;;;;;;;29.92;7.25;;;;;;;5.05;100.00;102798.81;5235969;28;20021;-71
2021/04/04 00:40:50;;;;;;;23.33;6.85;;;;;;;5.02;100.00;102796.31;5230710;28;20063;-68
2021/04/04 00:43:20;;;;;;;32.78;6.65;;;;;;;5.02;100.00;102794.53;5243584;28;20059;-71
2021/04/04 00:45:51;;;;;;;28.95;5.90;;;;;;;5.03;100.00;102792.75;5233210;28;20025;-70
2021/04/04 00:48:22;;;;;;;31.05;6.75;;;;;;;5.03;100.00;102795.41;5232800;28;20032;-67
2021/04/04 00:50:52;;;;;;;27.88;7.40;;;;;;;5.05;100.00;102785.53;5236200;28;20026;-68
2021/04/04 00:53:23;;;;;;;26.42;6.40;;;;;;;5.12;100.00;102793.09;5231273;28;20025;-70
2021/04/04 00:55:54;;;;;;;28.85;6.45;;;;;;;5.16;100.00;102791.13;5235582;28;20020;-68
2021/04/04 00:58:24;;;;;;;24.83;6.88;;;;;;;5.06;100.00;102784.56;5236973;28;20028;-68
2021/04/04 01:00:55;;;;;;;29.48;7.85;;;;;;;5.15;100.00;102784.09;5235776;28;20104;-69
2021/04/04 01:03:25;;;;;;;32.10;6.43;;;;;;;5.04;100.00;102790.00;5235861;28;20465;-68
2021/04/04 01:05:59;;;;;;;25.33;6.38;;;;;;;5.08;100.00;102788.03;5233355;28;20024;-68
2021/04/04 01:08:31;;;;;;;29.25;6.78;;;;;;;5.04;100.00;102782.00;5232343;28;20082;-68
2021/04/04 01:11:03;;;;;;;34.03;8.23;;;;;;;5.06;100.00;102792.56;5229243;28;20049;-69
2021/04/04 01:13:44;;;;;;;25.08;5.93;;;;;;;5.17;100.00;102787.50;5228513;28;20025;-68
2021/04/04 01:16:21;;;;;;;30.05;6.53;;;;;;;5.11;100.00;102783.38;5222930;28;20025;-68
2021/04/04 01:19:00;;;;;;;25.92;6.30;;;;;;;5.18;100.00;102773.28;5229908;28;20489;-69
2021/04/04 01:21:40;;;;;;;24.83;5.70;;;;;;;5.22;100.00;102788.13;5228174;28;20055;-68
2021/04/04 01:24:28;;;;;;;19.42;6.10;;;;;;;5.30;100.00;102782.38;5239474;28;20438;-69
2021/04/04 01:27:10;;;;;;;25.88;6.95;;;;;;;5.29;100.00;102776.19;5234513;28;20031;-68
2021/04/04 01:29:41;;;;;;;30.45;5.78;;;;;;;5.22;100.00;102779.28;5222918;28;20025;-68
2021/04/04 01:32:11;;;;;;;30.60;6.18;;;;;;;5.14;100.00;102777.91;5231090;28;20025;-71
2021/04/04 01:34:42;;;;;;;31.40;6.25;;;;;;;5.06;100.00;102780.13;5242581;28;20542;-69
2021/04/04 01:37:14;;;;;;;19.60;5.97;;;;;;;5.17;100.00;102782.19;5233448;28;20135;-70
2021/04/04 01:39:50;;;;;;;24.17;6.13;;;;;;;5.14;100.00;102772.59;5224085;28;20032;-67
2021/04/04 01:42:22;;;;;;;19.58;6.18;;;;;;;5.14;100.00;102775.25;5224287;28;20025;-68
2021/04/04 01:44:54;;;;;;;27.60;8.10;;;;;;;5.13;100.00;102783.31;5230690;28;20017;-68
2021/04/04 01:47:27;;;;;;;23.33;6.47;;;;;;;5.09;100.00;102776.44;5240095;28;20024;-68
2021/04/04 01:49:59;;;;;;;28.63;6.60;;;;;;;5.07;100.00;102770.31;5227493;28;20204;-69
2021/04/04 01:52:38;;;;;;;32.13;6.32;;;;;;;5.04;100.00;102778.50;5225847;28;20100;-71
2021/04/04 01:55:12;;;;;;;40.03;7.80;;;;;;;5.04;100.00;102776.69;5223853;28;20174;-68
2021/04/04 01:57:44;;;;;;;21.20;5.40;;;;;;;5.16;100.00;102780.47;5228189;28;20079;-68
2021/04/04 02:00:19;;;;;;;23.98;6.20;;;;;;;5.24;100.00;102772.09;5242258;28;20104;-68
2021/04/04 02:02:53;;;;;;;31.08;6.72;;;;;;;5.21;100.00;102770.44;5234047;28;20534;-70
2021/04/04 02:05:25;;;;;;;24.00;5.75;;;;;;;5.36;100.00;102771.38;5227715;28;20028;-68
2021/04/04 02:08:07;;;;;;;28.00;7.05;;;;;;;5.12;100.00;102768.28;5226662;28;20025;-68
2021/04/04 02:10:39;;;;;;;;;;;;;;;5.09;100.00;102771.13;5230078;28;20085;-69
2021/04/04 02:13:11;;;;;;;20.50;5.93;;;;;;;5.12;100.00;102770.94;5235434;28;19908;-69
2021/04/04 02:15:43;;;;;;;28.75;6.03;;;;;;;5.14;100.00;102777.03;5221843;28;20067;-68
2021/04/04 02:18:15;;;;;;;30.15;6.47;;;;;;;5.11;100.00;102766.56;5233514;28;20115;-68
2021/04/04 02:20:47;;;;;;;29.83;8.20;;;;;;;5.11;100.00;102764.75;5229496;28;20047;-68
2021/04/04 02:23:18;;;;;;;21.35;6.80;;;;;;;5.10;100.00;102767.50;5228776;28;20024;-68
2021/04/04 02:25:52;;;;;;;17.33;5.00;;;;;;;5.11;100.00;102762.09;5237786;28;20028;-71
2021/04/04 02:28:24;;;;;;;15.93;6.10;;;;;;;5.13;100.00;102754.91;5235258;28;20019;-69
2021/04/04 02:30:54;;;;;;;28.65;6.07;;;;;;;5.05;100.00;102742.97;5232653;28;20536;-72
2021/04/04 02:33:37;;;;;;;22.30;6.20;;;;;;;5.06;100.00;102744.66;5233282;28;20025;-68
2021/04/04 02:36:12;;;;;;;28.15;5.55;;;;;;;5.06;100.00;102744.66;5233646;28;20105;-68
2021/04/04 02:38:47;;;;;;;25.75;5.22;;;;;;;5.06;100.00;102745.53;5232805;28;20028;-68
2021/04/04 02:41:18;;;;;;;31.45;5.97;;;;;;;5.13;100.00;102751.38;5225498;28;20063;-68
2021/04/04 02:43:51;;;;;;;35.10;5.95;;;;;;;5.15;100.00;102746.84;5234566;28;20052;-68
2021/04/04 02:46:25;;;;;;;33.08;5.53;;;;;;;5.13;100.00;102744.25;5232869;28;20416;-68
2021/04/04 02:48:59;;;;;;;28.85;5.97;;;;;;;5.24;100.00;102741.00;5235270;28;20029;-68
2021/04/04 02:51:36;;;;;;;23.42;6.18;;;;;;;5.26;100.00;102738.25;5225537;28;20056;-68
2021/04/04 02:54:08;;;;;;;24.45;5.95;;;;;;;5.20;100.00;102745.63;5231270;28;20025;-68
2021/04/04 02:56:42;;;;;;;24.77;5.82;;;;;;;5.23;100.00;102735.78;5232503;28;20094;-67
2021/04/04 02:59:17;;;;;;;24.33;5.57;;;;;;;5.17;100.00;102742.28;5231510;28;20204;-67
2021/04/04 03:01:50;;;;;;;27.88;5.88;;;;;;;5.14;100.00;102739.81;5233781;28;20055;-67
2021/04/04 03:04:22;;;;;;;22.27;6.40;;;;;;;5.13;100.00;102732.75;5229603;28;20032;-67
2021/04/04 03:06:54;;;;;;;26.02;7.10;;;;;;;5.13;100.00;102727.44;5237031;28;20028;-66
2021/04/04 03:09:26;;;;;;;24.42;5.00;;;;;;;5.20;100.00;102723.47;5225641;28;20031;-68
2021/04/04 03:11:58;;;;;;;19.48;5.72;;;;;;;5.29;100.00;102725.63;5230677;28;20020;-67
2021/04/04 03:14:29;;;;;;;27.48;6.20;;;;;;;5.32;100.00;102727.25;5233383;28;20020;-68
2021/04/04 03:17:01;;;;;;;28.98;7.00;;;;;;;5.33;100.00;102721.88;5245650;28;20036;-68
2021/04/04 03:19:34;;;;;;;21.27;6.65;;;;;;;5.39;100.00;102718.84;5225959;28;20508;-69
2021/04/04 03:22:06;;;;;;;24.38;6.65;;;;;;;5.31;100.00;102725.53;5238203;28;20062;-68
2021/04/04 03:24:39;;;;;;;30.63;6.93;;;;;;;5.18;100.00;102720.06;5224635;28;20028;-68
2021/04/04 03:27:11;;;;;;;23.83;5.60;;;;;;;5.14;100.00;102723.84;5226318;28;20040;-68
2021/04/04 03:29:42;;;;;;;27.95;5.53;;;;;;;5.10;100.00;102714.31;5235884;28;20028;-70
2021/04/04 03:32:13;;;;;;;21.80;4.80;;;;;;;5.11;100.00;102724.84;5225551;28;20109;-69
2021/04/04 03:34:44;;;;;;;26.40;5.18;;;;;;;5.13;100.00;102719.47;5224201;28;20021;-69
2021/04/04 03:37:15;;;;;;;26.27;6.03;;;;;;;5.15;100.00;102726.41;5241497;28;20055;-68
2021/04/04 03:39:46;;;;;;;22.08;5.63;;;;;;;5.12;100.00;102710.63;5233651;28;20020;-68
2021/04/04 03:42:18;;;;;;;20.50;4.63;;;;;;;5.18;100.00;102714.75;5238517;28;20031;-68
2021/04/04 03:44:49;;;;;;;17.40;4.63;;;;;;;5.19;100.00;102711.13;5237000;28;20100;-68
2021/04/04 03:47:21;;;;;;;17.63;5.15;;;;;;;5.25;100.00;102715.25;5231248;28;20029;-69
2021/04/04 03:49:53;;;;;;;19.15;5.03;;;;;;;5.17;100.00;102702.34;5243645;28;20017;-69
2021/04/04 03:52:24;;;;;;;26.27;6.05;;;;;;;5.30;100.00;102702.53;5224611;28;20021;-69
2021/04/04 03:54:55;;;;;;;20.23;6.13;;;;;;;5.44;100.00;102707.94;5224378;28;20060;-70
2021/04/04 03:57:27;;;;;;;26.83;6.40;;;;;;;5.34;100.00;102704.94;5224530;28;20099;-68
2021/04/04 03:59:59;;;;;;;23.75;6.25;;;;;;;5.23;100.00;102699.38;5223066;28;20389;-69
2021/04/04 04:02:29;;;;;;;21.23;5.50;;;;;;;5.23;100.00;102701.19;5232232;28;20031;-68
2021/04/04 04:05:01;;;;;;;26.48;5.90;;;;;;;5.27;100.00;102708.03;5232919;28;20574;-69
2021/04/04 04:07:34;;;;;;;25.08;5.50;;;;;;;5.18;100.00;102701.44;5230125;28;20489;-69
2021/04/04 04:10:05;;;;;;;16.33;5.05;;;;;;;5.21;100.00;102703.91;5230243;28;20059;-68
2021/04/04 04:12:36;;;;;;;16.92;5.28;;;;;;;5.17;100.00;102694.38;5236763;28;21107;-67
2021/04/04 04:15:08;;;;;;;18.42;4.68;;;;;;;5.16;100.00;102704.16;5229534;28;20025;-71
2021/04/04 04:17:40;;;;;;;33.90;6.13;;;;;;;5.13;100.00;102700.84;5234086;28;20031;-67
2021/04/04 04:20:13;;;;;;;17.60;5.30;;;;;;;5.13;100.00;102701.69;5223317;28;20021;-70
2021/04/04 04:22:43;;;;;;;23.23;5.78;;;;;;;5.20;100.00;102705.72;5230838;28;20070;-69
2021/04/04 04:25:14;;;;;;;22.27;5.07;;;;;;;5.23;100.00;102702.03;5232845;28;20481;-73
2021/04/04 04:27:47;;;;;;;23.27;6.50;;;;;;;5.20;100.00;102702.19;5244473;28;20481;-68
2021/04/04 04:30:18;;;;;;;17.00;5.25;;;;;;;5.18;100.00;102696.13;5231826;28;20036;-69
2021/04/04 04:32:53;;;;;;;19.55;6.20;;;;;;;5.19;100.00;102695.16;5244323;28;20020;-68
2021/04/04 04:35:25;;;;;;;25.05;5.85;;;;;;;5.27;100.00;102700.94;5231053;28;20017;-69
2021/04/04 04:37:57;;;;;;;17.67;6.10;;;;;;;5.31;100.00;102693.59;5224363;28;20371;-68
2021/04/04 04:40:27;;;;;;;20.08;6.60;;;;;;;5.24;100.00;102690.44;5235143;28;20024;-70
2021/04/04 04:42:59;;;;;;;29.77;5.95;;;;;;;5.24;100.00;102692.25;5227727;28;20536;-69
2021/04/04 04:45:33;;;;;;;27.80;6.22;;;;;;;5.25;100.00;102689.50;5236536;28;20462;-69
2021/04/04 04:48:04;;;;;;;21.23;4.95;;;;;;;5.23;100.00;102694.06;5223115;28;20504;-67
2021/04/04 04:50:36;;;;;;;27.42;5.72;;;;;;;5.18;100.00;102694.31;5222801;28;20060;-69
2021/04/04 04:53:07;;;;;;;20.67;5.88;;;;;;;5.14;100.00;102689.25;5233682;28;20035;-69
2021/04/04 04:55:41;;;;;;;32.45;6.32;;;;;;;5.15;100.00;102683.81;5223102;28;20433;-69
2021/04/04 04:58:12;;;;;;;23.02;5.88;;;;;;;5.13;100.00;102691.06;5242955;28;20301;-67
2021/04/04 05:00:44;;;;;;;23.10;5.63;;;;;;;5.14;100.00;102690.09;5227687;28;20017;-68
2021/04/04 05:03:14;;;;;;;22.33;5.50;;;;;;;5.13;100.00;102691.06;5231326;28;20527;-69
2021/04/04 05:05:45;;;;;;;21.08;6.45;;;;;;;5.15;100.00;102694.47;5233248;28;20032;-69
2021/04/04 05:08:17;;;;;;;23.17;5.38;;;;;;;5.31;100.00;102699.78;5235887;28;20031;-72
2021/04/04 05:10:50;;;;;;;24.55;5.55;;;;;;;5.24;100.00;102695.75;5236248;28;20063;-72
2021/04/04 05:13:22;;;;;;;19.70;5.63;;;;;;;5.19;100.00;102695.16;5239186;28;20021;-71
2021/04/04 05:15:53;;;;;;;25.15;6.18;;;;;;;5.17;100.00;102692.59;5227443;28;20083;-68
2021/04/04 05:18:23;;;;;;;19.98;5.50;;;;;;;5.18;100.00;102704.09;5225929;28;20052;-69
2021/04/04 05:20:54;;;;;;;20.15;6.22;;;;;;;5.16;100.00;102701.50;5231537;28;20029;-69
2021/04/04 05:23:25;;;;;;;18.10;5.57;;;;;;;5.11;100.00;102695.59;5238079;28;20028;-69
2021/04/04 05:25:56;;;;;;;18.55;5.45;;;;;;;5.06;100.00;102696.78;5230409;28;20161;-68
2021/04/04 05:28:26;;;;;;;17.80;5.93;;;;;;;5.03;100.00;102692.50;5235594;28;20071;-69
2021/04/04 05:31:03;;;;;;;12.95;4.35;;;;;;;5.05;100.00;102697.75;5238521;28;20551;-69
2021/04/04 05:33:33;;;;;;;18.48;5.07;;;;;;;5.21;100.00;102698.59;5232537;28;20048;-68
2021/04/04 05:36:04;;;;;;;23.50;5.18;;;;;;;5.20;100.00;102696.88;5242460;28;20052;-68
2021/04/04 05:38:34;;;;;;;13.85;5.45;;;;;;;5.13;100.00;102698.19;5229569;28;20032;-70
2021/04/04 05:41:06;;;;;;;20.08;5.45;;;;;;;5.10;100.00;102699.19;5242655;28;20039;-69
2021/04/04 05:43:40;;;;;;;26.55;5.68;;;;;;;5.03;100.00;102696.97;5227910;28;20025;-71
2021/04/04 05:46:17;;;;;;;16.70;5.65;;;;;;;4.94;100.00;102701.84;5222240;28;20067;-71
2021/04/04 05:49:02;;;;;;;20.90;7.22;;;;;;;4.94;100.00;102695.69;5235018;28;20028;-69
2021/04/04 05:51:58;;;;;;;22.97;6.90;;;;;;;4.96;100.00;102696.44;5228167;28;20024;-69
2021/04/04 05:54:47;;;;;;;18.30;5.30;;;;;;;4.95;100.00;102692.06;5239463;28;20028;-69
2021/04/04 05:57:24;;;;;;;19.77;6.15;;;;;;;5.04;100.00;102693.38;5241471;28;20370;-69
2021/04/04 06:00:00;;;;;;;20.40;5.93;;;;;;;5.12;100.00;102699.09;5236214;28;20028;-68
2021/04/04 06:02:49;;;;;;;18.10;6.03;;;;;;;5.16;100.00;102695.31;5233845;28;20020;-70
2021/04/04 06:05:40;;;;;;;18.75;6.43;;;;;;;5.29;100.00;102695.50;5234395;28;20113;-69
2021/04/04 06:08:34;;;;;;;18.35;6.18;;;;;;;5.25;100.00;102697.47;5239710;28;20078;-68
2021/04/04 06:11:43;;;;;;;17.70;6.20;;;;;;;5.26;100.00;102693.00;5237154;28;20060;-71
2021/04/04 06:14:23;;;;;;;18.58;6.35;;;;;;;5.19;100.00;102693.38;5237366;28;20032;-69
2021/04/04 06:16:57;;;;;;;16.63;6.40;;;;;;;5.15;100.00;102696.28;5225107;28;20548;-69
2021/04/04 06:19:37;;;;;;;17.52;5.68;;;;;;;5.16;100.00;102696.19;5228044;28;20087;-69
2021/04/04 06:22:14;;;;;;;22.58;6.28;;;;;;;5.22;100.00;102695.00;5244218;28;20431;-71
2021/04/04 06:25:02;;;;;;;25.75;6.80;;;;;;;5.23;100.00;102696.72;5234763;28;20425;-69
2021/04/04 06:27:51;;;;;;;24.48;6.78;;;;;;;5.25;100.00;102693.97;5224114;28;20542;-69
2021/04/04 06:33:25;;;;;;;22.00;7.20;;;;;;;5.35;100.00;102693.34;5258667;28;20025;-72
2021/04/04 06:36:23;;;;;;;24.98;7.57;;;;;;;5.40;100.00;102693.94;5254286;28;20021;-73
2021/04/04 06:39:04;;;;;;;21.80;7.38;;;;;;;5.37;100.00;102688.81;5255063;28;20032;-72
2021/04/04 06:41:48;;;;;;;19.98;6.63;;;;;;;5.57;100.00;102685.00;5267998;28;20038;-72
2021/04/04 06:44:34;;;;;;;33.78;6.78;;;;;;;5.60;100.00;102690.13;5255094;28;20029;-72
2021/04/04 06:47:13;;;;;;;30.38;8.02;;;;;;;5.68;100.00;102697.69;5229304;28;20029;-69
2021/04/04 06:50:00;;;;;;;23.92;8.30;;;;;;;5.59;100.00;102690.22;5236504;28;20016;-72
2021/04/04 06:52:52;;;;;;;24.50;7.47;;;;;;;5.53;100.00;102693.25;5233526;28;20036;-69
2021/04/04 06:55:47;;;;;;;18.65;6.82;;;;;;;5.69;100.00;102699.41;5240014;28;20059;-69
2021/04/04 06:58:30;;;;;;;24.55;6.30;;;;;;;5.71;100.00;102697.50;5236589;28;20055;-70
2021/04/04 07:01:09;;;;;;;23.90;7.03;;;;;;;5.75;100.00;102688.38;5239238;28;20070;-69
2021/04/04 07:03:56;;;;;;;27.63;7.00;;;;;;;5.77;100.00;102689.13;5226877;28;20048;-69
2021/04/04 07:06:26;;;;;;;28.15;6.75;;;;;;;5.85;100.00;102683.38;5237707;28;20600;-69
2021/04/04 07:09:13;;;;;;;20.23;7.20;;;;;;;5.79;100.00;102695.25;5237967;28;20103;-69
2021/04/04 07:11:55;;;;;;;22.15;6.65;;;;;;;5.85;100.00;102692.22;5230569;28;20107;-68
2021/04/04 07:15:00;;;;;;;25.58;7.32;;;;;;;5.90;100.00;102689.28;5234031;28;20024;-69
2021/04/04 07:17:58;;;;;;;27.20;8.00;;;;;;;6.03;100.00;102692.97;5225802;28;20021;-68
2021/04/04 07:20:59;;;;;;;21.02;6.43;;;;;;;6.16;100.00;102687.75;5230419;28;20044;-72
2021/04/04 07:23:51;;;;;;;21.35;7.13;;;;;;;6.12;100.00;102688.88;5233141;28;20388;-69
2021/04/04 07:26:50;;;;;;;22.38;7.00;;;;;;;6.22;100.00;102687.38;5230192;28;20435;-69
2021/04/04 07:29:36;;;;;;;21.95;6.53;;;;;;;6.19;100.00;102687.56;5231682;28;20493;-71
2021/04/04 07:32:18;;;;;;;20.17;6.53;;;;;;;6.19;100.00;102692.91;5235558;28;20072;-69
2021/04/04 07:34:58;;;;;;;20.90;7.70;;;;;;;6.11;100.00;102688.03;5227283;28;20052;-69
2021/04/04 07:37:39;;;;;;;25.85;6.43;;;;;;;6.12;100.00;102681.75;5224126;28;20082;-71
2021/04/04 07:40:27;;;;;;;22.80;6.95;;;;;;;6.23;100.00;102689.13;5221891;28;20028;-72
2021/04/04 07:43:05;;;;;;;22.42;7.03;;;;;;;6.15;100.00;102686.03;5230467;28;20457;-69
2021/04/04 07:45:51;;;;;;;17.65;6.15;;;;;;;6.26;100.00;102682.72;5223465;28;20033;-70
2021/04/04 07:48:25;;;;;;;23.17;6.78;;;;;;;6.36;100.00;102681.22;5224658;28;20488;-71
2021/04/04 07:51:04;;;;;;;19.00;6.03;;;;;;;6.53;100.00;102683.72;5230855;28;20035;-70
2021/04/04 07:53:44;;;;;;;21.58;6.13;;;;;;;6.59;100.00;102682.47;5239046;28;20360;-69
2021/04/04 07:56:31;;;;;;;26.30;6.50;;;;;;;6.72;100.00;102676.25;5243419;28;20094;-69
2021/04/04 07:59:08;;;;;;;19.20;6.95;;;;;;;6.63;100.00;102682.19;5222088;28;20102;-70
2021/04/04 08:01:44;;;;;;;19.80;5.95;;;;;;;6.60;100.00;102674.34;5237837;28;20047;-69
2021/04/04 08:04:28;;;;;;;29.00;7.35;;;;;;;6.53;100.00;102674.84;5230923;28;20370;-69
2021/04/04 08:07:07;;;;;;;23.58;6.80;;;;;;;6.60;100.00;102678.84;5242322;28;20059;-69
2021/04/04 08:09:48;;;;;;;24.67;6.40;;;;;;;6.65;100.00;102679.41;5239746;28;20024;-70
2021/04/04 08:12:24;;;;;;;20.83;6.68;;;;;;;6.61;100.00;102678.72;5228312;28;20020;-72
2021/04/04 08:15:06;;;;;;;15.02;6.13;;;;;;;6.72;100.00;102686.06;5228700;28;20032;-69
2021/04/04 08:17:36;;;;;;;19.15;7.03;;;;;;;6.67;100.00;102683.69;5229444;28;20025;-69
2021/04/04 08:20:19;;;;;;;28.65;7.68;;;;;;;6.81;100.00;102687.31;5242172;28;20204;-69
2021/04/04 08:23:02;;;;;;;33.47;8.38;;;;;;;6.84;100.00;102679.97;5242031;28;20062;-69
2021/04/04 08:25:44;;;;;;;20.60;8.02;;;;;;;7.11;100.00;102685.34;5230453;28;20485;-68
2021/04/04 08:28:24;;;;;;;21.90;7.28;;;;;;;7.11;100.00;102676.47;5229478;28;20087;-69
2021/04/04 08:31:00;;;;;;;20.77;7.30;;;;;;;7.17;100.00;102678.75;5239584;28;20070;-69
2021/04/04 08:33:40;;;;;;;27.05;8.43;;;;;;;7.20;100.00;102679.41;5231877;28;20353;-71
2021/04/04 08:36:17;;;;;;;28.55;7.53;;;;;;;7.21;100.00;102674.91;5234159;28;20028;-69
2021/04/04 08:38:48;;;;;;;30.95;8.13;;;;;;;7.23;100.00;102676.56;5240831;28;20039;-72
2021/04/04 08:41:20;;;;;;;19.38;8.05;;;;;;;7.34;100.00;102672.31;5233591;28;20401;-69
2021/04/04 08:43:58;;;;;;;21.33;8.57;;;;;;;7.27;100.00;102672.69;5228355;28;20027;-70
2021/04/04 08:46:40;;;;;;;22.88;7.32;;;;;;;7.44;100.00;102676.09;5221898;28;20025;-72
2021/04/04 08:49:12;;;;;;;27.75;9.32;;;;;;;7.43;100.00;102674.38;5225665;28;20031;-68
2021/04/04 08:51:50;;;;;;;27.15;8.68;;;;;;;7.55;100.00;102680.72;5242204;28;20043;-70
2021/04/04 08:54:26;;;;;;;25.17;9.18;;;;;;;7.60;100.00;102679.47;5221097;28;20024;-71
2021/04/04 08:56:57;;;;;;;33.95;8.77;;;;;;;7.62;100.00;102680.19;5222009;28;20187;-72
2021/04/04 08:59:32;;;;;;;22.98;8.70;;;;;;;7.59;100.00;102679.56;5231201;28;20024;-69
2021/04/04 09:02:10;;;;;;;26.95;8.90;;;;;;;7.54;100.00;102679.88;5223507;28;20036;-71
2021/04/04 09:04:41;;;;;;;24.65;9.35;;;;;;;7.83;100.00;102682.38;5230433;28;20029;-72
2021/04/04 09:07:12;;;;;;;24.52;8.57;;;;;;;7.77;100.00;102670.28;5242370;28;20043;-69
2021/04/04 09:09:45;;;;;;;26.75;9.52;;;;;;;7.95;100.00;102677.06;5227530;28;20055;-69
2021/04/04 09:12:17;;;;;;;20.38;8.55;;;;;;;8.07;100.00;102677.19;5232200;28;20020;-69
2021/04/04 09:14:49;;;;;;;27.88;8.85;;;;;;;8.16;100.00;102677.41;5230254;28;20037;-69
2021/04/04 09:17:20;;;;;;;28.45;10.20;;;;;;;7.98;100.00;102674.22;5229403;28;20064;-70
2021/04/04 09:19:59;;;;;;;28.92;9.88;;;;;;;7.92;100.00;102671.06;5236435;28;20428;-70
2021/04/04 09:22:31;;;;;;;34.45;11.50;;;;;;;8.17;100.00;102662.22;5228479;28;20090;-71
2021/04/04 09:25:09;;;;;;;30.65;10.98;;;;;;;8.16;100.00;102664.06;5220581;28;20033;-68
2021/04/04 09:27:42;;;;;;;26.67;10.57;;;;;;;8.26;100.00;102661.59;5226904;28;20030;-70
2021/04/04 09:30:22;;;;;;;24.83;10.15;;;;;;;8.33;100.00;102660.19;5233747;28;20164;-70
2021/04/04 09:32:56;;;;;;;30.35;10.25;;;;;;;8.01;100.00;102651.75;5225676;28;20115;-72
2021/04/04 09:35:27;;;;;;;28.63;10.15;;;;;;;8.41;100.00;102652.53;5227296;28;20124;-69
2021/04/04 09:38:03;;;;;;;31.85;11.35;;;;;;;8.39;100.00;102650.94;5232940;28;20134;-69
2021/04/04 09:40:34;;;;;;;35.58;11.52;;;;;;;8.19;100.00;102645.13;5224020;28;20021;-70
2021/04/04 09:43:07;;;;;;;23.35;10.55;;;;;;;8.23;100.00;102637.72;5232775;28;20100;-69
2021/04/04 09:45:39;;;;;;;32.88;11.00;;;;;;;8.21;99.55;102642.34;5232634;28;20021;-71
2021/04/04 09:48:17;;;;;;;30.25;11.88;;;;;;;8.18;98.79;102647.88;5236816;28;20028;-70
2021/04/04 09:50:49;;;;;;;29.30;11.95;;;;;;;8.17;100.00;102644.38;5220305;28;20065;-70
2021/04/04 09:53:39;;;;;;;30.20;11.13;;;;;;;8.40;100.00;102642.81;5226018;28;20059;-70
2021/04/04 09:56:18;;;;;;;28.25;11.98;;;;;;;8.37;100.00;102647.50;5221500;28;20428;-69
2021/04/04 09:58:49;;;;;;;31.52;13.05;;;;;;;8.34;94.99;102645.03;5227853;28;20029;-71
2021/04/04 10:01:24;;;;;;;31.65;13.07;;;;;;;8.27;93.41;102653.47;5236208;28;20439;-69
2021/04/04 10:04:03;;;;;;;37.75;13.20;;;;;;;8.29;95.35;102645.34;5223040;28;20025;-72
2021/04/04 10:06:36;;;;;;;35.92;13.13;;;;;;;8.37;94.99;102632.31;5238984;28;20120;-70
2021/04/04 10:09:11;;;;;;;30.05;13.15;;;;;;;8.43;100.00;102639.88;5235782;28;20623;-69
2021/04/04 10:11:42;;;;;;;38.08;14.85;;;;;;;8.49;100.00;102631.47;5231003;28;20025;-70
2021/04/04 10:14:14;;;;;;;46.55;15.77;;;;;;;8.38;99.24;102630.47;5227316;28;20535;-69
2021/04/04 10:16:45;;;;;;;37.85;16.13;;;;;;;8.69;100.00;102627.34;5228595;28;20401;-69
2021/04/04 10:19:16;;;;;;;35.20;17.10;;;;;;;8.75;97.29;102626.91;5227286;28;20025;-69
2021/04/04 10:21:56;;;;;;;39.67;17.55;;;;;;;8.75;93.24;102621.56;5241262;28;20572;-69
2021/04/04 10:24:29;;;;;;;39.38;15.88;;;;;;;8.75;89.75;102616.19;5235321;28;20054;-70
2021/04/04 10:27:23;;;;;;;39.03;16.10;;;;;;;8.51;100.00;102618.81;5225042;28;20897;-69
2021/04/04 10:30:05;;;;;;;41.40;17.17;;;;;;;8.75;100.00;102621.56;5224273;28;20029;-70
2021/04/04 10:32:35;;;;;;;37.50;16.35;;;;;;;8.61;95.75;102626.19;5233427;28;20039;-70
2021/04/04 10:35:08;;;;;;;39.22;15.52;;;;;;;8.85;92.18;102619.06;5235574;28;20103;-69
2021/04/04 10:37:39;;;;;;;39.35;16.83;;;;;;;9.11;91.01;102616.28;5225813;28;20485;-69
2021/04/04 10:40:11;;;;;;;39.15;16.73;;;;;;;8.93;92.58;102613.13;5227324;28;20528;-69
2021/04/04 10:42:55;;;;;;;35.00;15.70;;;;;;;8.97;88.93;102620.81;5223189;28;20024;-69
2021/04/04 10:45:26;;;;;;;38.33;17.25;;;;;;;8.99;93.36;102616.25;5233387;28;20025;-68
2021/04/04 10:48:05;;;;;;;35.10;15.45;;;;;;;9.04;94.84;102610.53;5232964;28;20413;-71
2021/04/04 10:50:36;;;;;;;38.05;18.05;;;;;;;9.05;91.79;102607.75;5226875;28;20384;-69
2021/04/04 10:53:07;;;;;;;39.53;17.55;;;;;;;9.06;90.63;102605.91;5224065;28;20025;-70
2021/04/04 10:55:37;;;;;;;36.40;16.88;;;;;;;9.29;84.67;102590.81;5235170;28;20379;-69
2021/04/04 10:58:08;;;;;;;36.70;17.30;;;;;;;9.12;87.29;102591.22;5230331;28;20031;-71
2021/04/04 11:00:39;;;;;;;36.90;16.17;;;;;;;9.17;81.51;102586.38;5235735;28;20110;-71
2021/04/04 11:03:09;;;;;;;32.92;16.05;;;;;;;9.06;80.99;102592.53;5239860;28;20035;-71
2021/04/04 11:05:40;;;;;;;37.28;17.48;;;;;;;8.98;90.84;102579.69;5225128;28;20409;-69
2021/04/04 11:08:11;;;;;;;34.45;16.45;;;;;;;9.08;84.58;102582.56;5231445;28;20021;-71
2021/04/04 11:10:42;;;;;;;35.97;15.15;;;;;;;9.02;83.37;102575.84;5224980;28;20029;-70
2021/04/04 11:13:14;;;;;;;34.42;14.88;;;;;;;8.95;87.03;102571.91;5235594;28;20412;-72
2021/04/04 11:15:56;;;;;;;38.90;16.98;;;;;;;9.19;83.99;102568.38;5230517;28;20104;-72
2021/04/04 11:18:31;;;;;;;34.70;17.08;;;;;;;9.18;85.39;102562.16;5233128;28;20425;-68
2021/04/04 11:21:04;;;;;;;50.92;30.38;;;;;;;9.10;83.47;102566.38;5227443;28;20028;-70
2021/04/04 11:23:37;;;;;;;43.03;17.83;;;;;;;9.05;87.59;102564.91;5223797;28;20586;-72
2021/04/04 11:26:25;;;;;;;41.55;19.25;;;;;;;9.09;91.20;102554.84;5242038;28;20063;-72
2021/04/04 11:29:09;;;;;;;33.95;17.08;;;;;;;9.11;85.31;102552.03;5228966;28;20394;-69
2021/04/04 11:31:42;;;;;;;36.00;16.48;;;;;;;8.97;88.65;102555.72;5232172;28;20029;-71
2021/04/04 11:34:26;;;;;;;43.00;18.60;;;;;;;9.11;87.18;102554.72;5241512;28;20109;-69
2021/04/04 11:37:01;;;;;;;33.47;17.08;;;;;;;9.03;88.47;102553.44;5229114;28;20120;-69
2021/04/04 11:39:32;;;;;;;33.85;17.05;;;;;;;9.21;85.48;102556.56;5222810;28;20028;-72
2021/04/04 11:42:04;;;;;;;35.33;17.42;;;;;;;9.44;93.43;102554.84;5240281;28;20107;-70
2021/04/04 11:44:39;;;;;;;35.00;17.35;;;;;;;9.48;86.23;102552.75;5239785;28;20029;-69
2021/04/04 11:47:23;;;;;;;36.42;18.13;;;;;;;9.22;83.66;102546.72;5241942;28;20044;-72
2021/04/04 11:49:55;;;;;;;39.90;18.25;;;;;;;9.01;89.69;102550.03;5228557;28;20021;-70
2021/04/04 11:52:26;;;;;;;37.33;18.05;;;;;;;9.01;91.78;102543.84;5231307;28;20082;-70
2021/04/04 11:54:56;;;;;;;38.83;17.95;;;;;;;9.31;95.41;102546.88;5227704;28;20416;-70
2021/04/04 11:57:32;;;;;;;34.17;17.52;;;;;;;9.33;88.09;102544.91;5230777;28;20103;-69